Time;durP1;ratioP1;P1;durP2;ratioP2;P2;SDS_P1;SDS_P2;PMS_P1;PMS_P2;Temp;Humidity;BMP_temperature;BMP_pressure;BME280_temperature;BME280_humidity;BME280_pressure;Samples;Min_cycle;Max_cycle;Signal;HPM_P1;HPM_P2
2023/01/17 00:01:06;;;;;;;1.15;0.80;;;2.10;99.90;;;;;;5008956;28;20210;-70
2023/01/17 00:09:51;;;;;;;0.70;0.70;;;1.90;99.90;;;;;;5009019;28;20218;-69
2023/01/17 00:11:55;;;;;;;1.05;0.90;;;1.60;99.90;;;;;;4998281;28;20923;-70
2023/01/17 00:14:22;;;;;;;1.00;0.90;;;1.50;99.90;;;;;;5009243;28;20198;-70
2023/01/17 00:16:48;;;;;;;1.15;0.80;;;1.40;99.90;;;;;;5009166;28;20427;-70
2023/01/17 01:33:51;;;;;;;1.00;0.85;;;1.10;99.90;;;;;;5032639;28;20770;-70
2023/01/17 01:36:17;;;;;;;1.17;1.08;;;1.10;99.90;;;;;;5032150;28;20229;-69
2023/01/17 01:38:45;;;;;;;1.30;1.20;;;1.10;99.90;;;;;;5031800;28;20205;-69
2023/01/17 01:41:12;;;;;;;3.05;0.90;;;1.10;99.90;;;;;;5031949;28;20677;-69
2023/01/17 01:43:43;;;;;;;1.63;1.20;;;1.10;99.90;;;;;;5032570;28;20201;-69
2023/01/17 01:46:12;;;;;;;1.20;1.10;;;1.10;99.90;;;;;;5032121;28;20259;-69
2023/01/17 01:48:43;;;;;;;2.78;1.20;;;1.20;99.90;;;;;;5031987;28;20623;-69
2023/01/17 01:51:15;;;;;;;1.58;1.25;;;1.20;99.90;;;;;;5031953;28;20209;-70
2023/01/17 01:53:47;;;;;;;1.30;1.00;;;1.20;99.90;;;;;;5032519;28;20225;-70
2023/01/17 01:56:15;;;;;;;1.10;1.00;;;1.20;99.90;;;;;;5031843;28;20620;-70
2023/01/17 01:58:46;;;;;;;1.23;1.13;;;1.20;99.90;;;;;;5031608;28;20672;-69
2023/01/17 02:01:14;;;;;;;1.45;1.10;;;1.20;99.90;;;;;;5031982;28;20213;-69
2023/01/17 02:03:41;;;;;;;1.00;0.90;;;1.20;99.90;;;;;;5031945;28;20554;-69
2023/01/17 02:06:20;;;;;;;1.30;1.20;;;1.20;99.90;;;;;;5031843;28;20233;-69
2023/01/17 02:08:48;;;;;;;1.10;0.93;;;1.20;99.90;;;;;;5031303;28;20254;-69
2023/01/17 02:11:15;;;;;;;3.65;2.10;;;1.20;99.90;;;;;;5031610;28;20201;-69
2023/01/17 02:13:43;;;;;;;1.20;1.10;;;1.30;99.90;;;;;;5031912;28;20608;-69
2023/01/17 02:16:22;;;;;;;0.98;0.90;;;1.30;99.90;;;;;;5031469;28;20228;-69
2023/01/17 02:18:56;;;;;;;1.33;1.23;;;1.30;99.90;;;;;;5031395;28;20570;-69
2023/01/17 02:21:25;;;;;;;1.00;0.85;;;1.30;99.90;;;;;;5031516;28;20560;-69
2023/01/17 02:24:25;;;;;;;1.00;0.90;;;1.20;99.90;;;;;;5031612;28;20213;-69
2023/01/17 02:27:01;;;;;;;2.45;1.33;;;1.10;99.90;;;;;;5031533;28;20222;-69
2023/01/17 02:30:18;;;;;;;9.25;1.77;;;1.20;99.90;;;;;;5030955;28;20209;-70
2023/01/17 02:32:53;;;;;;;2.03;1.10;;;1.20;99.90;;;;;;5031228;28;20198;-70
2023/01/17 02:35:29;;;;;;;1.10;0.85;;;1.20;99.90;;;;;;5031149;28;20220;-69
2023/01/17 02:38:05;;;;;;;1.88;1.13;;;1.10;99.90;;;;;;5032299;28;20221;-70
2023/01/17 02:40:38;;;;;;;1.30;1.10;;;1.20;99.90;;;;;;5030931;28;20217;-70
2023/01/17 02:43:08;;;;;;;1.00;0.90;;;1.20;99.90;;;;;;5031397;28;20202;-70
2023/01/17 02:45:35;;;;;;;1.00;0.90;;;1.20;99.90;;;;;;5031003;28;20324;-70
2023/01/17 02:48:03;;;;;;;1.48;1.15;;;1.10;99.90;;;;;;5031368;28;20209;-70
2023/01/17 02:50:44;;;;;;;2.28;1.15;;;1.10;99.90;;;;;;5029687;28;20212;-70
2023/01/17 02:53:30;;;;;;;1.92;1.20;;;1.00;99.90;;;;;;5031203;28;20208;-68
2023/01/17 02:56:02;;;;;;;1.23;0.75;;;1.00;99.90;;;;;;5030897;28;20592;-69
2023/01/17 02:58:41;;;;;;;1.33;0.73;;;0.90;99.90;;;;;;5030439;28;20590;-69
2023/01/17 03:01:19;;;;;;;1.15;0.90;;;0.90;99.90;;;;;;5031035;28;20616;-70
2023/01/17 03:03:53;;;;;;;1.02;0.93;;;0.90;99.90;;;;;;5030881;28;20207;-70
2023/01/17 03:06:25;;;;;;;1.60;1.15;;;1.00;99.90;;;;;;5030837;28;20221;-70
2023/01/17 03:08:53;;;;;;;1.20;0.98;;;1.00;99.90;;;;;;5030351;28;20205;-70
2023/01/17 03:11:20;;;;;;;1.00;0.90;;;1.00;99.90;;;;;;5030594;28;20292;-70
2023/01/17 03:13:47;;;;;;;1.10;1.00;;;1.00;99.90;;;;;;5030808;28;20204;-70
2023/01/17 03:16:19;;;;;;;1.10;1.00;;;1.10;99.90;;;;;;5030617;28;20232;-69
2023/01/17 03:18:48;;;;;;;1.17;0.90;;;1.00;99.90;;;;;;5030400;28;20229;-70
2023/01/17 03:21:15;;;;;;;0.90;0.80;;;1.10;99.90;;;;;;5030155;28;20221;-69
2023/01/17 03:23:41;;;;;;;0.90;0.90;;;1.00;99.90;;;;;;5030982;28;20607;-70
2023/01/17 03:26:08;;;;;;;1.10;0.80;;;1.00;99.90;;;;;;5030214;28;20229;-70
2023/01/17 03:28:35;;;;;;;1.00;0.90;;;1.00;99.90;;;;;;5030161;28;20201;-69
2023/01/17 03:31:01;;;;;;;1.20;1.10;;;1.00;99.90;;;;;;5030623;28;20202;-69
2023/01/17 03:33:28;;;;;;;1.15;1.05;;;1.00;99.90;;;;;;5030200;28;20206;-70
2023/01/17 03:35:57;;;;;;;2.22;1.10;;;1.00;99.90;;;;;;5030482;28;20629;-70
2023/01/17 03:38:24;;;;;;;1.70;1.20;;;0.90;99.90;;;;;;5029589;28;20253;-70
2023/01/17 03:40:51;;;;;;;1.00;0.90;;;0.90;99.90;;;;;;5030421;28;20896;-70
2023/01/17 03:43:18;;;;;;;1.30;1.10;;;0.90;99.90;;;;;;5030015;28;20202;-69
2023/01/17 03:45:45;;;;;;;1.40;1.20;;;1.00;99.90;;;;;;5030510;28;20241;-69
2023/01/17 03:48:12;;;;;;;1.45;1.10;;;1.00;99.90;;;;;;5030043;28;20198;-69
2023/01/17 03:50:38;;;;;;;1.30;1.05;;;1.00;99.90;;;;;;5029851;28;20665;-70
2023/01/17 03:53:06;;;;;;;1.35;1.00;;;0.90;99.90;;;;;;5030349;28;20665;-70
2023/01/17 03:55:33;;;;;;;1.13;1.02;;;0.90;99.90;;;;;;5029843;28;20229;-70
2023/01/17 03:58:00;;;;;;;2.05;1.15;;;0.90;99.90;;;;;;5030167;28;20228;-70
2023/01/17 04:00:26;;;;;;;0.93;0.82;;;0.80;99.90;;;;;;5029446;28;20205;-69
2023/01/17 04:02:54;;;;;;;4.60;1.30;;;0.70;99.90;;;;;;5033066;28;20672;-70
2023/01/17 04:05:20;;;;;;;1.52;0.80;;;0.70;99.90;;;;;;5033951;28;20778;-69
2023/01/17 04:07:47;;;;;;;1.02;0.93;;;0.70;99.90;;;;;;5034192;28;20791;-69
2023/01/17 04:10:16;;;;;;;1.13;1.02;;;0.70;99.90;;;;;;5033348;28;20206;-69
2023/01/17 04:12:42;;;;;;;5.13;1.45;;;0.70;99.90;;;;;;5033894;28;20201;-69
2023/01/17 04:15:10;;;;;;;1.45;1.20;;;0.60;99.90;;;;;;5033842;28;20221;-70
2023/01/17 04:17:37;;;;;;;1.95;1.25;;;0.60;99.90;;;;;;5034059;28;20611;-69
2023/01/17 04:20:04;;;;;;;2.75;1.65;;;0.60;99.90;;;;;;5033218;28;20692;-69
2023/01/17 04:22:31;;;;;;;2.22;1.55;;;0.60;99.90;;;;;;5034129;28;20209;-70
2023/01/17 04:24:58;;;;;;;1.80;1.02;;;0.60;99.90;;;;;;5033018;28;20272;-70
2023/01/17 04:27:26;;;;;;;1.10;1.00;;;0.60;99.90;;;;;;5033619;28;20208;-69
2023/01/17 04:29:52;;;;;;;1.00;0.80;;;0.60;99.90;;;;;;5033079;28;20809;-70
2023/01/17 04:32:19;;;;;;;0.90;0.80;;;0.50;99.90;;;;;;5031819;28;20676;-70
2023/01/17 04:34:46;;;;;;;2.70;1.20;;;0.40;99.90;;;;;;5015545;28;20198;-70
2023/01/17 04:37:12;;;;;;;3.72;1.20;;;0.30;99.90;;;;;;5032608;28;20190;-71
2023/01/17 04:39:39;;;;;;;1.17;1.08;;;0.30;99.90;;;;;;5023234;28;20205;-71
2023/01/17 04:42:06;;;;;;;0.90;0.80;;;0.30;99.90;;;;;;5017840;28;20203;-70
2023/01/17 04:44:34;;;;;;;1.35;1.10;;;0.30;99.90;;;;;;5032546;28;20205;-70
2023/01/17 04:47:02;;;;;;;1.30;1.20;;;0.30;99.90;;;;;;5012929;28;20202;-70
2023/01/17 04:49:28;;;;;;;1.42;1.00;;;0.30;99.90;;;;;;5030999;28;20201;-70
2023/01/17 04:51:55;;;;;;;1.00;0.90;;;0.20;99.90;;;;;;5033409;28;20202;-71
2023/01/17 04:54:22;;;;;;;1.02;0.93;;;0.10;99.90;;;;;;5033095;28;20197;-71
2023/01/17 04:56:48;;;;;;;1.33;1.15;;;0.10;99.90;;;;;;5033283;28;20266;-71
2023/01/17 04:59:16;;;;;;;1.10;1.00;;;0.10;99.90;;;;;;5031844;28;20249;-71
2023/01/17 05:01:44;;;;;;;1.40;1.30;;;0.20;99.90;;;;;;5033074;28;20393;-71
2023/01/17 05:04:11;;;;;;;1.00;0.90;;;0.20;99.90;;;;;;5032323;28;20210;-70
2023/01/17 05:06:37;;;;;;;1.08;0.98;;;0.20;99.90;;;;;;5032679;28;20225;-69
2023/01/17 05:09:05;;;;;;;1.88;1.13;;;0.10;99.90;;;;;;5031998;28;20684;-70
2023/01/17 05:11:32;;;;;;;2.15;1.20;;;0.20;99.90;;;;;;5032654;28;20276;-70
2023/01/17 05:13:59;;;;;;;3.80;1.20;;;0.20;99.90;;;;;;5032146;28;20201;-70
2023/01/17 05:16:26;;;;;;;1.48;1.23;;;0.10;99.90;;;;;;5032407;28;20226;-71
2023/01/17 05:18:54;;;;;;;3.88;1.02;;;0.20;99.90;;;;;;5032302;28;20218;-70
2023/01/17 05:21:21;;;;;;;1.40;1.30;;;0.20;99.90;;;;;;5032352;28;21306;-71
2023/01/17 05:23:49;;;;;;;1.20;0.90;;;0.30;99.90;;;;;;5032965;28;20216;-70
2023/01/17 05:26:15;;;;;;;2.10;2.00;;;0.30;99.90;;;;;;5031309;28;20786;-69
2023/01/17 05:28:42;;;;;;;1.10;1.00;;;0.30;99.90;;;;;;5015961;28;20194;-69
2023/01/17 05:31:09;;;;;;;1.10;1.00;;;0.30;99.90;;;;;;5032195;28;20615;-68
2023/01/17 05:33:35;;;;;;;1.67;1.27;;;0.30;99.90;;;;;;5032354;28;20300;-69
2023/01/17 05:36:04;;;;;;;2.22;1.48;;;0.40;99.90;;;;;;5032540;28;20563;-70
2023/01/17 05:38:30;;;;;;;1.35;1.20;;;0.40;99.90;;;;;;5031592;28;20236;-70
2023/01/17 05:40:59;;;;;;;1.45;1.23;;;0.40;99.90;;;;;;5032428;28;20209;-70
2023/01/17 05:43:26;;;;;;;2.88;1.15;;;0.40;99.90;;;;;;5032004;28;20213;-69
2023/01/17 05:45:53;;;;;;;1.90;1.20;;;0.50;99.90;;;;;;5032272;28;20225;-70
2023/01/17 05:48:19;;;;;;;2.90;1.80;;;0.50;99.90;;;;;;5031566;28;20198;-70
2023/01/17 05:50:46;;;;;;;1.73;0.93;;;0.50;99.90;;;;;;5032149;28;20208;-70
2023/01/17 05:53:16;;;;;;;1.50;1.40;;;0.50;99.90;;;;;;5032039;28;20201;-70
2023/01/17 05:55:43;;;;;;;2.33;1.40;;;0.50;99.90;;;;;;5031899;28;20723;-70
2023/01/17 05:58:15;;;;;;;2.22;1.75;;;0.50;99.90;;;;;;5031826;28;20224;-70
2023/01/17 06:00:43;;;;;;;1.50;1.40;;;0.50;99.90;;;;;;5032449;28;20233;-70
2023/01/17 06:03:10;;;;;;;2.75;1.55;;;0.50;99.90;;;;;;5032146;28;20213;-70
2023/01/17 06:05:37;;;;;;;1.63;1.52;;;0.50;99.90;;;;;;5032142;28;20222;-70
2023/01/17 06:08:04;;;;;;;2.15;1.45;;;0.50;99.90;;;;;;5032197;28;20194;-69
2023/01/17 06:10:32;;;;;;;1.73;1.20;;;0.50;99.90;;;;;;5031734;28;20569;-69
2023/01/17 06:13:05;;;;;;;2.22;2.00;;;0.40;99.90;;;;;;5032035;28;20201;-70
2023/01/17 06:15:32;;;;;;;1.63;1.10;;;0.40;99.90;;;;;;5032003;28;20229;-70
2023/01/17 06:18:04;;;;;;;2.20;1.73;;;0.40;99.90;;;;;;5031690;28;20233;-71
2023/01/17 06:20:32;;;;;;;2.47;1.83;;;0.40;99.90;;;;;;5031582;28;20208;-70
2023/01/17 06:23:00;;;;;;;1.38;1.27;;;0.30;99.90;;;;;;5031779;28;20229;-70
2023/01/17 06:25:26;;;;;;;3.28;1.70;;;0.30;99.90;;;;;;5030733;28;20232;-69
2023/01/17 06:27:54;;;;;;;1.20;1.00;;;0.30;99.90;;;;;;5032194;28;20198;-69
2023/01/17 06:30:21;;;;;;;2.55;1.40;;;0.30;99.90;;;;;;5030945;28;20252;-70
2023/01/17 06:32:52;;;;;;;1.50;1.40;;;0.20;99.90;;;;;;5031747;28;20673;-70
2023/01/17 06:35:19;;;;;;;1.65;1.55;;;0.20;99.90;;;;;;5031180;28;20218;-70
2023/01/17 06:37:46;;;;;;;1.77;1.38;;;0.10;99.90;;;;;;5031539;28;20300;-70
2023/01/17 06:40:13;;;;;;;4.43;1.95;;;0.10;99.90;;;;;;5030741;28;20206;-70
2023/01/17 06:42:39;;;;;;;2.65;1.50;;;0.10;99.90;;;;;;5031808;28;20206;-71
2023/01/17 06:45:09;;;;;;;1.15;1.00;;;0.10;99.90;;;;;;5031386;28;20233;-70
2023/01/17 06:47:38;;;;;;;1.83;1.60;;;0.10;99.90;;;;;;5031362;28;20575;-71
2023/01/17 06:50:05;;;;;;;2.03;1.80;;;0.10;99.90;;;;;;5030795;28;20205;-70
2023/01/17 06:52:32;;;;;;;2.42;1.27;;;0.10;99.90;;;;;;5031508;28;20217;-71
2023/01/17 06:54:59;;;;;;;1.50;1.10;;;0.10;99.90;;;;;;5031034;28;20225;-69
2023/01/17 06:57:26;;;;;;;2.15;1.52;;;0.00;99.90;;;;;;5030712;28;20212;-70
2023/01/17 06:59:52;;;;;;;1.85;1.73;;;0.00;99.90;;;;;;5030760;28;20225;-71
2023/01/17 07:02:20;;;;;;;1.60;1.50;;;0.00;99.90;;;;;;5030917;28;20206;-70
2023/01/17 07:04:47;;;;;;;5.88;2.20;;;0.00;99.90;;;;;;5031167;28;20198;-70
2023/01/17 07:07:14;;;;;;;1.60;1.50;;;0.00;99.90;;;;;;5030708;28;20205;-70
2023/01/17 07:09:40;;;;;;;1.40;1.30;;;0.00;99.90;;;;;;5030683;28;20570;-69
2023/01/17 07:12:07;;;;;;;1.13;1.02;;;0.00;99.90;;;;;;5030754;28;20406;-70
2023/01/17 07:14:34;;;;;;;4.30;2.08;;;0.10;99.90;;;;;;5030816;28;20205;-70
2023/01/17 07:17:01;;;;;;;1.55;1.45;;;0.10;99.90;;;;;;5030962;28;20197;-70
2023/01/17 07:19:29;;;;;;;1.40;1.30;;;0.10;99.90;;;;;;5029902;28;20236;-70
2023/01/17 07:21:55;;;;;;;2.33;1.65;;;0.10;99.90;;;;;;5031030;28;20201;-70
2023/01/17 07:24:22;;;;;;;1.40;1.30;;;0.10;99.90;;;;;;5030436;28;20577;-69
2023/01/17 07:26:49;;;;;;;2.25;1.95;;;0.20;99.90;;;;;;5031025;28;20601;-69
2023/01/17 07:29:16;;;;;;;1.40;1.30;;;0.20;99.90;;;;;;5029913;28;20315;-70
2023/01/17 07:31:43;;;;;;;1.40;1.23;;;0.20;99.90;;;;;;5030927;28;20210;-71
2023/01/17 07:34:11;;;;;;;2.95;1.50;;;0.20;99.90;;;;;;5030428;28;20289;-69
2023/01/17 07:36:39;;;;;;;4.28;1.75;;;0.30;99.90;;;;;;5030298;28;20229;-71
2023/01/17 07:39:06;;;;;;;2.10;1.70;;;0.30;99.90;;;;;;5030251;28;20225;-70
2023/01/17 07:41:33;;;;;;;4.82;1.80;;;0.40;99.90;;;;;;5030365;28;20695;-71
2023/01/17 07:44:00;;;;;;;3.17;1.70;;;0.40;99.90;;;;;;5030526;28;20206;-69
2023/01/17 07:46:27;;;;;;;2.13;1.95;;;0.40;99.90;;;;;;5030309;28;20291;-71
2023/01/17 07:48:54;;;;;;;2.28;2.05;;;0.40;99.90;;;;;;5030259;28;20198;-72
2023/01/17 07:51:20;;;;;;;2.10;1.95;;;0.40;99.90;;;;;;5030176;28;20197;-71
2023/01/17 07:53:48;;;;;;;1.33;1.15;;;0.40;99.90;;;;;;5031102;28;20583;-72
2023/01/17 07:56:15;;;;;;;4.45;1.90;;;0.40;99.90;;;;;;5030017;28;20226;-72
2023/01/17 07:58:42;;;;;;;1.80;1.38;;;0.40;99.90;;;;;;5029647;28;20225;-71
2023/01/17 08:01:11;;;;;;;1.88;1.50;;;0.40;99.90;;;;;;5030179;28;20197;-72
2023/01/17 08:03:39;;;;;;;4.22;1.60;;;0.40;99.90;;;;;;5030481;28;20206;-72
2023/01/17 08:06:07;;;;;;;1.50;1.40;;;0.50;99.90;;;;;;5030480;28;20268;-71
2023/01/17 08:08:34;;;;;;;2.50;2.13;;;0.60;99.90;;;;;;5030026;28;20198;-71
2023/01/17 08:11:02;;;;;;;3.42;1.45;;;0.70;99.90;;;;;;5030505;28;20206;-72
2023/01/17 08:13:28;;;;;;;3.13;1.77;;;0.70;99.90;;;;;;5029980;28;20210;-72
2023/01/17 08:15:55;;;;;;;1.80;1.50;;;0.80;99.90;;;;;;5030638;28;20225;-71
2023/01/17 08:18:22;;;;;;;2.05;1.40;;;1.00;99.90;;;;;;5029296;28;20225;-71
2023/01/17 08:20:49;;;;;;;2.70;1.77;;;1.10;99.90;;;;;;5030683;28;20209;-71
2023/01/17 08:23:15;;;;;;;2.40;2.20;;;1.30;99.90;;;;;;5029961;28;20669;-72
2023/01/17 08:25:42;;;;;;;1.70;1.60;;;1.50;99.90;;;;;;5029955;28;20293;-72
2023/01/17 08:28:10;;;;;;;1.85;1.70;;;1.80;99.90;;;;;;5029768;28;20205;-72
2023/01/17 08:30:37;;;;;;;2.35;2.05;;;2.10;99.90;;;;;;5029842;28;20552;-72
2023/01/17 08:33:03;;;;;;;3.80;2.08;;;2.30;99.90;;;;;;5030621;28;20205;-72
2023/01/17 08:35:30;;;;;;;2.33;2.13;;;2.40;99.90;;;;;;5029748;28;20731;-72
2023/01/17 08:38:03;;;;;;;2.00;1.80;;;2.70;99.90;;;;;;5030122;28;20209;-72
2023/01/17 08:40:30;;;;;;;4.35;2.00;;;3.30;99.90;;;;;;5029278;28;20222;-71
2023/01/17 08:42:58;;;;;;;3.20;2.03;;;3.80;99.90;;;;;;5030197;28;20204;-71
2023/01/17 08:45:27;;;;;;;1.40;1.30;;;4.20;99.90;;;;;;5029709;28;20226;-72
2023/01/17 08:47:54;;;;;;;1.90;1.58;;;4.50;99.90;;;;;;5029726;28;20201;-71
2023/01/17 08:50:20;;;;;;;2.28;1.30;;;4.60;99.90;;;;;;5032616;28;20201;-71
2023/01/17 08:52:48;;;;;;;1.90;1.60;;;4.60;99.90;;;;;;5033444;28;20580;-71
2023/01/17 08:55:15;;;;;;;1.67;1.50;;;4.50;99.90;;;;;;5033201;28;20397;-71
2023/01/17 08:57:42;;;;;;;1.90;1.50;;;4.20;99.90;;;;;;5033483;28;20205;-71
2023/01/17 09:00:10;;;;;;;2.00;1.75;;;4.10;99.90;;;;;;5032810;28;20230;-71
2023/01/17 09:02:38;;;;;;;1.77;1.67;;;4.00;99.90;;;;;;5033251;28;20209;-71
2023/01/17 09:05:06;;;;;;;1.45;1.35;;;3.70;99.90;;;;;;5033362;28;20226;-71
2023/01/17 09:07:32;;;;;;;3.50;1.55;;;3.40;99.90;;;;;;5033217;28;20205;-71
2023/01/17 09:09:59;;;;;;;2.50;1.75;;;3.00;99.90;;;;;;5032723;28;20202;-71
2023/01/17 09:12:27;;;;;;;1.75;1.65;;;2.90;99.90;;;;;;5033077;28;20715;-71
2023/01/17 09:14:53;;;;;;;1.73;1.48;;;3.10;99.90;;;;;;5028731;28;20224;-71
2023/01/17 09:17:20;;;;;;;2.47;1.60;;;3.70;99.90;;;;;;5030939;28;20695;-71
2023/01/17 09:19:48;;;;;;;1.50;1.40;;;4.50;99.90;;;;;;5031849;28;20233;-71
2023/01/17 09:22:15;;;;;;;2.45;2.10;;;5.50;99.90;;;;;;5031749;28;20202;-71
2023/01/17 09:24:42;;;;;;;4.80;1.55;;;6.80;99.90;;;;;;5032731;28;20276;-71
2023/01/17 09:27:08;;;;;;;1.65;1.30;;;8.80;99.90;;;;;;5032344;28;20206;-72
2023/01/17 09:29:35;;;;;;;1.77;1.67;;;11.40;99.90;;;;;;5032200;28;20236;-71
2023/01/17 09:32:02;;;;;;;1.98;1.77;;;14.00;99.90;;;;;;5032430;28;20205;-71
2023/01/17 09:34:29;;;;;;;2.63;2.13;;;15.70;98.30;;;;;;5031839;28;20217;-72
2023/01/17 09:36:57;;;;;;;2.95;1.90;;;17.00;97.00;;;;;;5031856;28;20565;-71
2023/01/17 09:39:24;;;;;;;4.30;1.73;;;17.90;95.50;;;;;;5031693;28;20328;-71
2023/01/17 09:41:58;;;;;;;1.67;1.53;;;18.10;93.70;;;;;;5031945;28;20201;-71
2023/01/17 09:44:28;;;;;;;1.50;1.40;;;17.60;92.80;;;;;;5031813;28;20848;-71
2023/01/17 09:46:59;;;;;;;1.85;1.55;;;16.00;91.90;;;;;;5031912;28;20476;-71
2023/01/17 09:49:37;;;;;;;1.92;1.70;;;14.80;93.30;;;;;;5030960;28;20202;-71
2023/01/17 09:52:06;;;;;;;2.03;1.70;;;15.50;94.50;;;;;;5032028;28;20623;-71
2023/01/17 09:54:37;;;;;;;1.70;1.57;;;17.50;93.50;;;;;;5031483;28;20217;-71
2023/01/17 09:57:14;;;;;;;1.80;1.70;;;19.10;92.80;;;;;;5032110;28;20527;-71
2023/01/17 09:59:52;;;;;;;2.03;1.60;;;20.10;90.60;;;;;;5030366;28;20491;-72
2023/01/17 10:02:40;;;;;;;2.20;1.67;;;21.10;88.50;;;;;;5031940;28;20463;-71
2023/01/17 10:05:43;;;;;;;2.00;1.80;;;21.40;86.10;;;;;;5031263;28;20992;-72
2023/01/17 10:08:23;;;;;;;1.90;1.70;;;21.60;86.50;;;;;;5031300;28;20835;-71
2023/01/17 10:10:59;;;;;;;3.97;2.07;;;22.50;83.00;;;;;;5031315;28;20955;-70
2023/01/17 10:13:38;;;;;;;2.17;1.90;;;22.70;82.50;;;;;;5031405;28;20468;-70
2023/01/17 10:16:24;;;;;;;1.30;1.10;;;23.00;79.50;;;;;;5031760;28;20853;-70
2023/01/17 10:19:12;;;;;;;2.33;1.50;;;22.50;76.00;;;;;;5031569;28;20460;-71
2023/01/17 10:21:57;;;;;;;2.13;1.50;;;21.70;78.90;;;;;;5031387;28;20456;-71
2023/01/17 10:25:02;;;;;;;1.80;1.50;;;22.70;80.10;;;;;;5031013;28;20471;-72
2023/01/17 10:27:33;;;;;;;1.87;1.57;;;23.50;80.00;;;;;;5030938;28;20681;-71
2023/01/17 10:30:03;;;;;;;2.60;1.77;;;24.10;74.90;;;;;;5030894;28;20519;-71
2023/01/17 10:32:33;;;;;;;1.20;1.10;;;24.00;75.30;;;;;;5031262;28;20848;-71
2023/01/17 10:35:11;;;;;;;2.20;1.60;;;23.90;73.80;;;;;;5028086;28;20832;-70
2023/01/17 10:37:41;;;;;;;2.30;1.80;;;24.10;75.70;;;;;;5010843;28;20484;-71
2023/01/17 10:40:19;;;;;;;2.00;1.50;;;23.90;73.40;;;;;;5022567;28;20487;-71
2023/01/17 10:42:51;;;;;;;1.77;1.63;;;24.70;71.90;;;;;;5031162;28;20833;-71
2023/01/17 10:45:24;;;;;;;2.80;2.00;;;23.70;68.80;;;;;;5030051;28;20476;-70
2023/01/17 10:48:01;;;;;;;1.87;1.70;;;22.90;71.60;;;;;;5030991;28;20838;-70
2023/01/17 10:50:32;;;;;;;1.53;1.43;;;23.30;70.40;;;;;;5029562;28;20460;-70
2023/01/17 10:53:06;;;;;;;1.90;1.70;;;23.20;72.70;;;;;;5031050;28;20471;-70
2023/01/17 10:55:42;;;;;;;1.20;0.90;;;21.80;66.00;;;;;;5030506;28;20861;-69
2023/01/17 10:58:11;;;;;;;2.20;1.40;;;19.80;66.10;;;;;;5030022;28;20853;-69
2023/01/17 11:00:47;;;;;;;1.00;0.90;;;19.10;68.40;;;;;;5030927;28;20480;-70
2023/01/17 11:03:18;;;;;;;1.40;1.03;;;20.00;68.90;;;;;;5030341;28;20979;-70
2023/01/17 11:05:45;;;;;;;1.23;1.03;;;19.80;66.60;;;;;;5031106;28;20534;-70
2023/01/17 11:08:13;;;;;;;1.43;1.13;;;20.40;69.10;;;;;;5030570;28;20467;-70
2023/01/17 11:10:43;;;;;;;1.83;1.10;;;21.10;64.90;;;;;;5030768;28;20834;-70
2023/01/17 11:13:29;;;;;;;1.30;1.10;;;21.20;65.00;;;;;;5030117;28;20471;-70
2023/01/17 11:15:59;;;;;;;1.40;0.90;;;20.80;66.40;;;;;;5020277;28;20469;-70
2023/01/17 11:18:28;;;;;;;1.03;0.93;;;21.00;68.90;;;;;;5010336;28;20515;-70
2023/01/17 11:21:10;;;;;;;1.37;1.07;;;21.10;67.80;;;;;;5010876;28;20846;-70
2023/01/17 11:23:39;;;;;;;1.10;0.97;;;20.70;65.00;;;;;;5011127;28;20847;-70
2023/01/17 11:26:11;;;;;;;1.00;0.90;;;20.40;69.40;;;;;;5010259;28;20489;-69
2023/01/17 11:28:39;;;;;;;1.33;1.23;;;20.20;65.20;;;;;;5010371;28;20472;-70
2023/01/17 11:31:22;;;;;;;2.07;1.00;;;18.30;67.40;;;;;;5010305;28;20467;-70
2023/01/17 11:33:54;;;;;;;1.30;1.20;;;17.30;70.50;;;;;;5010783;28;20843;-70
2023/01/17 11:36:23;;;;;;;1.47;1.20;;;16.40;69.80;;;;;;5009721;28;20480;-70
2023/01/17 11:38:57;;;;;;;1.50;1.20;;;15.30;72.10;;;;;;5009790;28;20948;-69
2023/01/17 11:41:26;;;;;;;2.73;1.40;;;15.30;77.60;;;;;;5010181;28;20564;-70
2023/01/17 11:43:56;;;;;;;2.33;1.17;;;15.80;73.90;;;;;;5010411;28;20461;-70
2023/01/17 11:46:23;;;;;;;1.83;1.23;;;16.00;76.00;;;;;;5010994;28;20485;-70
2023/01/17 11:48:52;;;;;;;1.20;0.97;;;15.80;76.30;;;;;;5010232;28;20465;-69
2023/01/17 11:51:24;;;;;;;2.17;1.48;;;15.10;73.90;;;;;;5009621;28;20472;-70
2023/01/17 11:53:51;;;;;;;1.63;0.93;;;13.70;77.50;;;;;;5010282;28;20206;-69
2023/01/17 11:56:22;;;;;;;1.45;1.10;;;12.10;81.50;;;;;;5009947;28;20234;-70
2023/01/17 11:58:50;;;;;;;1.33;1.23;;;10.80;84.50;;;;;;5009667;28;20619;-70
2023/01/17 12:01:36;;;;;;;1.42;1.00;;;10.30;87.20;;;;;;5010049;28;20261;-70
2023/01/17 12:04:23;;;;;;;1.40;1.00;;;10.20;85.10;;;;;;5009958;28;20209;-71
2023/01/17 12:07:01;;;;;;;1.33;1.10;;;9.50;85.90;;;;;;5000936;28;20222;-69
2023/01/17 12:09:34;;;;;;;1.58;1.13;;;9.00;89.80;;;;;;5009577;28;20206;-70
2023/01/17 12:15:06;;;;;;;3.08;1.23;;;9.70;88.20;;;;;;5010252;28;20221;-70
2023/01/17 12:17:50;;;;;;;1.42;0.98;;;9.30;88.30;;;;;;5010004;28;20568;-70
2023/01/17 12:20:24;;;;;;;1.10;0.95;;;8.60;89.10;;;;;;5009360;28;20226;-70
2023/01/17 12:23:12;;;;;;;1.23;0.90;;;8.50;89.10;;;;;;5011329;28;20206;-71
2023/01/17 12:25:54;;;;;;;1.05;0.95;;;8.30;90.30;;;;;;5014114;28;20317;-71
2023/01/17 12:28:45;;;;;;;1.40;1.30;;;8.10;90.80;;;;;;5012730;28;20584;-70
2023/01/17 12:31:20;;;;;;;1.20;1.00;;;8.30;91.10;;;;;;5013962;28;20194;-70
2023/01/17 12:33:52;;;;;;;2.40;1.13;;;8.40;90.80;;;;;;5024861;28;20201;-70
2023/01/17 12:36:35;;;;;;;1.67;0.90;;;8.60;91.10;;;;;;5031995;28;20233;-70
2023/01/17 12:39:05;;;;;;;0.90;0.80;;;8.30;90.70;;;;;;5032207;28;20212;-70
2023/01/17 12:41:36;;;;;;;1.10;1.00;;;7.90;91.80;;;;;;5031877;28;20226;-70
2023/01/17 12:44:02;;;;;;;1.25;1.00;;;7.60;92.60;;;;;;5024237;28;20206;-71
2023/01/17 12:46:37;;;;;;;1.23;1.00;;;7.20;92.10;;;;;;5012363;28;20263;-71
2023/01/17 12:49:19;;;;;;;13.07;2.08;;;6.80;92.60;;;;;;5011742;28;20673;-69
2023/01/17 12:51:49;;;;;;;1.30;1.00;;;6.50;93.50;;;;;;5013079;28;20546;-70
2023/01/17 12:54:20;;;;;;;3.60;1.75;;;6.50;93.70;;;;;;5011935;28;20306;-71
2023/01/17 12:56:50;;;;;;;1.10;0.98;;;6.50;94.10;;;;;;5012075;28;20234;-70
2023/01/17 12:59:21;;;;;;;1.17;0.80;;;6.60;93.70;;;;;;5011893;28;20218;-70
2023/01/17 13:01:57;;;;;;;1.20;1.10;;;6.20;93.80;;;;;;5012187;28;20228;-70
2023/01/17 13:04:27;;;;;;;0.98;0.88;;;6.10;94.10;;;;;;5011939;28;20236;-70
2023/01/17 13:07:06;;;;;;;1.88;1.08;;;6.00;94.30;;;;;;5011658;28;20222;-70
2023/01/17 13:09:37;;;;;;;2.30;0.98;;;5.80;94.60;;;;;;5012032;28;20207;-70
2023/01/17 13:12:07;;;;;;;1.00;0.90;;;5.40;93.40;;;;;;5011700;28;20669;-70
2023/01/17 13:14:34;;;;;;;1.65;0.98;;;5.20;93.70;;;;;;5012399;28;20214;-70
2023/01/17 13:17:10;;;;;;;2.40;1.05;;;4.90;94.30;;;;;;5012322;28;20205;-70
2023/01/17 13:19:43;;;;;;;1.60;1.00;;;4.80;95.10;;;;;;5011311;28;20202;-70
2023/01/17 13:22:16;;;;;;;1.23;1.10;;;4.70;95.80;;;;;;5011968;28;20199;-70
2023/01/17 13:24:54;;;;;;;1.25;1.00;;;4.70;95.60;;;;;;5012015;28;20210;-70
2023/01/17 13:27:51;;;;;;;2.28;1.10;;;4.70;95.70;;;;;;5011460;28;20570;-70
2023/01/17 13:30:31;;;;;;;0.80;0.80;;;4.70;96.40;;;;;;5010911;28;20222;-70
2023/01/17 13:33:28;;;;;;;1.10;1.00;;;4.70;95.90;;;;;;5012008;28;20209;-70
2023/01/17 13:36:04;;;;;;;1.20;0.70;;;4.60;95.40;;;;;;5011098;28;20240;-70
2023/01/17 13:38:53;;;;;;;2.00;1.80;;;4.50;94.30;;;;;;5011398;28;20633;-70
2023/01/17 13:41:42;;;;;;;1.73;0.95;;;4.40;95.00;;;;;;5011123;28;20227;-70
2023/01/17 13:44:23;;;;;;;2.00;1.08;;;4.30;95.00;;;;;;5011502;28;20281;-71
2023/01/17 13:46:59;;;;;;;1.52;1.08;;;4.30;95.00;;;;;;5011449;28;20664;-71
2023/01/17 13:49:42;;;;;;;1.42;0.90;;;4.30;95.50;;;;;;5010636;28;21222;-71
2023/01/17 13:52:11;;;;;;;1.10;0.95;;;4.30;95.90;;;;;;5011140;28;20198;-71
2023/01/17 13:54:45;;;;;;;1.38;1.27;;;4.20;95.70;;;;;;5011059;28;20214;-71
2023/01/17 13:57:40;;;;;;;2.88;1.10;;;4.10;95.00;;;;;;5010523;28;20205;-71
2023/01/17 14:00:58;;;;;;;1.88;0.90;;;4.10;95.40;;;;;;5010959;28;20973;-70
2023/01/17 14:04:05;;;;;;;1.73;1.33;;;4.00;95.60;;;;;;5010682;28;20206;-70
2023/01/17 14:06:40;;;;;;;1.17;0.90;;;4.00;95.90;;;;;;5024384;28;20272;-69
2023/01/17 14:09:24;;;;;;;1.90;1.05;;;3.90;96.00;;;;;;5030911;28;20401;-69
2023/01/17 14:11:58;;;;;;;2.45;1.20;;;3.80;96.30;;;;;;5031711;28;20198;-69
2023/01/17 14:14:49;;;;;;;1.30;1.00;;;3.80;97.00;;;;;;5031030;28;20209;-70
2023/01/17 14:17:50;;;;;;;1.50;1.00;;;3.80;97.80;;;;;;5031568;28;20610;-69
2023/01/17 14:20:44;;;;;;;1.30;1.17;;;3.90;98.20;;;;;;5030290;28;20221;-69
2023/01/17 14:23:51;;;;;;;0.80;0.80;;;3.90;97.70;;;;;;5029562;28;20688;-70
2023/01/17 14:26:48;;;;;;;2.20;1.20;;;4.00;97.70;;;;;;5012846;28;20217;-69
2023/01/17 14:29:48;;;;;;;1.77;1.30;;;3.90;97.90;;;;;;5030861;28;20193;-70
2023/01/17 14:32:17;;;;;;;1.67;1.20;;;3.80;97.70;;;;;;5030793;28;20190;-70
2023/01/17 14:34:46;;;;;;;1.20;1.10;;;3.70;97.40;;;;;;5031243;28;20202;-70
2023/01/17 14:37:20;;;;;;;3.95;2.08;;;3.60;97.80;;;;;;5030975;28;20219;-70
2023/01/17 14:39:49;;;;;;;3.70;2.10;;;3.50;98.10;;;;;;5031099;28;20197;-69
2023/01/17 14:42:19;;;;;;;2.15;1.73;;;3.50;98.60;;;;;;5030535;28;20229;-70